sensor_id;sensor_type;location;lat;lon;timestamp;P1;durP1;ratioP1;P2;durP2;ratioP2
46731;SDS011;32477;51.474;5.696;2022-10-31T00:02:03;42.67;;;16.23;;
46731;SDS011;32477;51.474;5.696;2022-10-31T00:04:28;39.03;;;16.35;;
46731;SDS011;32477;51.474;5.696;2022-10-31T00:06:54;31.00;;;16.60;;
46731;SDS011;32477;51.474;5.696;2022-10-31T00:09:20;43.55;;;17.23;;
46731;SDS011;32477;51.474;5.696;2022-10-31T00:11:45;35.75;;;16.48;;
46731;SDS011;32477;51.474;5.696;2022-10-31T00:14:11;37.65;;;16.90;;
46731;SDS011;32477;51.474;5.696;2022-10-31T00:16:37;35.00;;;16.02;;
46731;SDS011;32477;51.474;5.696;2022-10-31T00:19:03;38.05;;;16.33;;
46731;SDS011;32477;51.474;5.696;2022-10-31T00:21:31;32.63;;;16.70;;
46731;SDS011;32477;51.474;5.696;2022-10-31T00:23:59;38.63;;;16.77;;
46731;SDS011;32477;51.474;5.696;2022-10-31T00:26:28;35.78;;;14.88;;
46731;SDS011;32477;51.474;5.696;2022-10-31T00:28:56;45.80;;;15.85;;
46731;SDS011;32477;51.474;5.696;2022-10-31T00:31:23;32.97;;;16.20;;
46731;SDS011;32477;51.474;5.696;2022-10-31T00:33:49;34.08;;;14.65;;
46731;SDS011;32477;51.474;5.696;2022-10-31T00:36:16;38.88;;;15.77;;
46731;SDS011;32477;51.474;5.696;2022-10-31T00:38:43;35.50;;;15.73;;
46731;SDS011;32477;51.474;5.696;2022-10-31T00:41:13;31.67;;;15.93;;
46731;SDS011;32477;51.474;5.696;2022-10-31T00:43:41;35.85;;;16.58;;
46731;SDS011;32477;51.474;5.696;2022-10-31T00:46:07;37.10;;;15.35;;
46731;SDS011;32477;51.474;5.696;2022-10-31T00:48:33;30.83;;;14.80;;
46731;SDS011;32477;51.474;5.696;2022-10-31T00:50:59;32.83;;;15.80;;
46731;SDS011;32477;51.474;5.696;2022-10-31T00:53:25;42.53;;;15.73;;
46731;SDS011;32477;51.474;5.696;2022-10-31T00:55:50;40.42;;;15.93;;
46731;SDS011;32477;51.474;5.696;2022-10-31T00:58:16;46.58;;;16.85;;
46731;SDS011;32477;51.474;5.696;2022-10-31T01:00:42;32.30;;;15.48;;
46731;SDS011;32477;51.474;5.696;2022-10-31T01:03:08;36.97;;;14.57;;
46731;SDS011;32477;51.474;5.696;2022-10-31T01:05:34;30.98;;;15.63;;
46731;SDS011;32477;51.474;5.696;2022-10-31T01:08:00;32.00;;;14.65;;
46731;SDS011;32477;51.474;5.696;2022-10-31T01:10:25;35.13;;;15.10;;
46731;SDS011;32477;51.474;5.696;2022-10-31T01:12:51;35.80;;;15.23;;
46731;SDS011;32477;51.474;5.696;2022-10-31T01:15:20;34.95;;;15.48;;
46731;SDS011;32477;51.474;5.696;2022-10-31T01:17:47;37.45;;;15.45;;
46731;SDS011;32477;51.474;5.696;2022-10-31T01:20:13;34.20;;;15.70;;
46731;SDS011;32477;51.474;5.696;2022-10-31T01:22:40;39.78;;;17.38;;
46731;SDS011;32477;51.474;5.696;2022-10-31T01:25:07;36.38;;;15.73;;
46731;SDS011;32477;51.474;5.696;2022-10-31T01:27:37;37.10;;;17.33;;
46731;SDS011;32477;51.474;5.696;2022-10-31T01:30:03;41.78;;;16.95;;
46731;SDS011;32477;51.474;5.696;2022-10-31T01:32:30;36.40;;;17.00;;
46731;SDS011;32477;51.474;5.696;2022-10-31T01:34:56;47.65;;;18.08;;
46731;SDS011;32477;51.474;5.696;2022-10-31T01:37:21;45.42;;;17.85;;
46731;SDS011;32477;51.474;5.696;2022-10-31T01:39:50;41.75;;;17.73;;
46731;SDS011;32477;51.474;5.696;2022-10-31T01:42:17;45.15;;;19.17;;
46731;SDS011;32477;51.474;5.696;2022-10-31T01:44:52;42.90;;;18.05;;
46731;SDS011;32477;51.474;5.696;2022-10-31T01:47:19;48.45;;;19.25;;
46731;SDS011;32477;51.474;5.696;2022-10-31T01:49:53;50.97;;;21.48;;
46731;SDS011;32477;51.474;5.696;2022-10-31T01:54:56;51.95;;;21.58;;
46731;SDS011;32477;51.474;5.696;2022-10-31T01:57:26;60.92;;;21.85;;
46731;SDS011;32477;51.474;5.696;2022-10-31T01:59:55;48.30;;;23.25;;
46731;SDS011;32477;51.474;5.696;2022-10-31T02:02:25;56.10;;;22.25;;
46731;SDS011;32477;51.474;5.696;2022-10-31T02:04:54;49.83;;;21.17;;
46731;SDS011;32477;51.474;5.696;2022-10-31T02:07:25;54.75;;;22.17;;
46731;SDS011;32477;51.474;5.696;2022-10-31T02:09:56;55.65;;;21.85;;
46731;SDS011;32477;51.474;5.696;2022-10-31T02:12:23;60.88;;;23.98;;
46731;SDS011;32477;51.474;5.696;2022-10-31T02:14:53;67.28;;;21.63;;
46731;SDS011;32477;51.474;5.696;2022-10-31T02:17:19;65.78;;;23.77;;
46731;SDS011;32477;51.474;5.696;2022-10-31T02:19:56;54.38;;;22.50;;
46731;SDS011;32477;51.474;5.696;2022-10-31T02:25:29;44.13;;;23.23;;
46731;SDS011;32477;51.474;5.696;2022-10-31T02:28:14;60.53;;;23.80;;
46731;SDS011;32477;51.474;5.696;2022-10-31T02:34:21;56.65;;;22.95;;
46731;SDS011;32477;51.474;5.696;2022-10-31T02:37:13;51.75;;;21.67;;
46731;SDS011;32477;51.474;5.696;2022-10-31T02:39:53;56.95;;;22.65;;
46731;SDS011;32477;51.474;5.696;2022-10-31T02:42:29;66.63;;;21.77;;
46731;SDS011;32477;51.474;5.696;2022-10-31T02:45:14;58.92;;;22.05;;
46731;SDS011;32477;51.474;5.696;2022-10-31T02:47:51;55.50;;;20.95;;
46731;SDS011;32477;51.474;5.696;2022-10-31T02:50:28;68.55;;;22.23;;
46731;SDS011;32477;51.474;5.696;2022-10-31T02:52:57;60.83;;;23.10;;
46731;SDS011;32477;51.474;5.696;2022-10-31T02:58:11;70.03;;;24.10;;
46731;SDS011;32477;51.474;5.696;2022-10-31T03:00:47;64.50;;;23.65;;
46731;SDS011;32477;51.474;5.696;2022-10-31T03:03:57;73.82;;;22.95;;
46731;SDS011;32477;51.474;5.696;2022-10-31T03:06:31;62.00;;;23.95;;
46731;SDS011;32477;51.474;5.696;2022-10-31T03:09:06;60.15;;;24.35;;
46731;SDS011;32477;51.474;5.696;2022-10-31T03:14:31;81.70;;;25.05;;
46731;SDS011;32477;51.474;5.696;2022-10-31T03:17:06;68.03;;;27.27;;
46731;SDS011;32477;51.474;5.696;2022-10-31T03:19:40;72.07;;;28.42;;
46731;SDS011;32477;51.474;5.696;2022-10-31T03:22:19;85.88;;;27.98;;
46731;SDS011;32477;51.474;5.696;2022-10-31T03:24:48;77.53;;;28.33;;
46731;SDS011;32477;51.474;5.696;2022-10-31T03:27:15;69.80;;;26.30;;
46731;SDS011;32477;51.474;5.696;2022-10-31T03:29:47;65.53;;;26.35;;
46731;SDS011;32477;51.474;5.696;2022-10-31T03:32:16;76.93;;;26.13;;
46731;SDS011;32477;51.474;5.696;2022-10-31T03:34:49;60.28;;;24.77;;
46731;SDS011;32477;51.474;5.696;2022-10-31T03:37:18;60.40;;;25.17;;
46731;SDS011;32477;51.474;5.696;2022-10-31T03:39:46;80.55;;;26.23;;
46731;SDS011;32477;51.474;5.696;2022-10-31T03:42:15;65.10;;;26.85;;
46731;SDS011;32477;51.474;5.696;2022-10-31T03:44:56;71.47;;;26.75;;
46731;SDS011;32477;51.474;5.696;2022-10-31T03:47:36;76.28;;;25.70;;
46731;SDS011;32477;51.474;5.696;2022-10-31T03:50:04;84.53;;;27.92;;
46731;SDS011;32477;51.474;5.696;2022-10-31T03:52:36;80.03;;;27.17;;
46731;SDS011;32477;51.474;5.696;2022-10-31T03:55:19;79.95;;;29.73;;
46731;SDS011;32477;51.474;5.696;2022-10-31T03:58:08;93.70;;;28.75;;
46731;SDS011;32477;51.474;5.696;2022-10-31T04:00:38;83.05;;;28.25;;
46731;SDS011;32477;51.474;5.696;2022-10-31T04:03:10;67.97;;;28.23;;
46731;SDS011;32477;51.474;5.696;2022-10-31T04:05:39;84.53;;;29.20;;
46731;SDS011;32477;51.474;5.696;2022-10-31T04:08:10;82.65;;;28.95;;
46731;SDS011;32477;51.474;5.696;2022-10-31T04:10:40;88.10;;;28.77;;
46731;SDS011;32477;51.474;5.696;2022-10-31T04:13:11;77.90;;;27.92;;
46731;SDS011;32477;51.474;5.696;2022-10-31T04:15:40;70.63;;;28.45;;
46731;SDS011;32477;51.474;5.696;2022-10-31T04:18:08;73.05;;;27.95;;
46731;SDS011;32477;51.474;5.696;2022-10-31T04:20:35;82.05;;;27.55;;
46731;SDS011;32477;51.474;5.696;2022-10-31T04:23:03;83.57;;;27.40;;
46731;SDS011;32477;51.474;5.696;2022-10-31T04:25:30;61.83;;;25.40;;
46731;SDS011;32477;51.474;5.696;2022-10-31T04:27:56;72.07;;;28.35;;
46731;SDS011;32477;51.474;5.696;2022-10-31T04:30:21;90.30;;;29.50;;
46731;SDS011;32477;51.474;5.696;2022-10-31T04:32:47;73.78;;;30.33;;
46731;SDS011;32477;51.474;5.696;2022-10-31T04:35:16;85.88;;;29.15;;
46731;SDS011;32477;51.474;5.696;2022-10-31T04:37:41;80.22;;;31.45;;
46731;SDS011;32477;51.474;5.696;2022-10-31T04:40:07;95.60;;;31.70;;
46731;SDS011;32477;51.474;5.696;2022-10-31T04:42:33;86.88;;;31.60;;
46731;SDS011;32477;51.474;5.696;2022-10-31T04:44:59;93.65;;;31.05;;
46731;SDS011;32477;51.474;5.696;2022-10-31T04:47:25;84.43;;;30.23;;
46731;SDS011;32477;51.474;5.696;2022-10-31T04:49:51;87.88;;;28.75;;
46731;SDS011;32477;51.474;5.696;2022-10-31T04:52:16;93.43;;;30.70;;
46731;SDS011;32477;51.474;5.696;2022-10-31T04:54:42;80.10;;;30.83;;
46731;SDS011;32477;51.474;5.696;2022-10-31T04:57:08;90.13;;;31.33;;
46731;SDS011;32477;51.474;5.696;2022-10-31T04:59:33;85.57;;;33.13;;
46731;SDS011;32477;51.474;5.696;2022-10-31T05:01:59;100.40;;;34.88;;
46731;SDS011;32477;51.474;5.696;2022-10-31T05:04:25;95.63;;;33.50;;
46731;SDS011;32477;51.474;5.696;2022-10-31T05:06:51;104.35;;;36.25;;
46731;SDS011;32477;51.474;5.696;2022-10-31T05:09:17;111.25;;;35.17;;
46731;SDS011;32477;51.474;5.696;2022-10-31T05:11:45;96.75;;;35.88;;
46731;SDS011;32477;51.474;5.696;2022-10-31T05:14:14;97.47;;;34.72;;
46731;SDS011;32477;51.474;5.696;2022-10-31T05:16:43;99.60;;;35.22;;
46731;SDS011;32477;51.474;5.696;2022-10-31T05:19:09;117.85;;;36.80;;
46731;SDS011;32477;51.474;5.696;2022-10-31T05:21:34;122.40;;;38.13;;
46731;SDS011;32477;51.474;5.696;2022-10-31T05:24:01;126.20;;;36.30;;
46731;SDS011;32477;51.474;5.696;2022-10-31T05:26:27;110.40;;;35.28;;
46731;SDS011;32477;51.474;5.696;2022-10-31T05:28:53;119.10;;;36.00;;
46731;SDS011;32477;51.474;5.696;2022-10-31T05:31:22;102.40;;;34.95;;
46731;SDS011;32477;51.474;5.696;2022-10-31T05:33:51;108.40;;;34.28;;
46731;SDS011;32477;51.474;5.696;2022-10-31T05:36:17;102.32;;;34.13;;
46731;SDS011;32477;51.474;5.696;2022-10-31T05:38:43;98.75;;;31.75;;
46731;SDS011;32477;51.474;5.696;2022-10-31T05:41:08;114.43;;;33.22;;
46731;SDS011;32477;51.474;5.696;2022-10-31T05:43:34;95.60;;;32.47;;
46731;SDS011;32477;51.474;5.696;2022-10-31T05:46:00;98.50;;;32.47;;
46731;SDS011;32477;51.474;5.696;2022-10-31T05:48:26;106.93;;;33.50;;
46731;SDS011;32477;51.474;5.696;2022-10-31T05:50:51;102.78;;;33.53;;
46731;SDS011;32477;51.474;5.696;2022-10-31T05:53:17;119.50;;;36.50;;
46731;SDS011;32477;51.474;5.696;2022-10-31T05:55:43;143.73;;;35.85;;
46731;SDS011;32477;51.474;5.696;2022-10-31T05:58:09;111.28;;;34.88;;
46731;SDS011;32477;51.474;5.696;2022-10-31T06:00:35;98.97;;;32.83;;
46731;SDS011;32477;51.474;5.696;2022-10-31T06:03:03;104.32;;;33.88;;
46731;SDS011;32477;51.474;5.696;2022-10-31T06:05:30;127.38;;;33.08;;
46731;SDS011;32477;51.474;5.696;2022-10-31T06:07:56;114.47;;;34.65;;
46731;SDS011;32477;51.474;5.696;2022-10-31T06:10:22;98.78;;;34.97;;
46731;SDS011;32477;51.474;5.696;2022-10-31T06:12:48;102.63;;;35.00;;
46731;SDS011;32477;51.474;5.696;2022-10-31T06:15:15;120.85;;;37.40;;
46731;SDS011;32477;51.474;5.696;2022-10-31T06:17:41;109.00;;;35.28;;
46731;SDS011;32477;51.474;5.696;2022-10-31T06:20:08;104.60;;;33.72;;
46731;SDS011;32477;51.474;5.696;2022-10-31T06:22:34;127.05;;;37.05;;
46731;SDS011;32477;51.474;5.696;2022-10-31T06:25:00;124.95;;;37.17;;
46731;SDS011;32477;51.474;5.696;2022-10-31T06:27:25;126.20;;;37.47;;
46731;SDS011;32477;51.474;5.696;2022-10-31T06:29:51;124.93;;;36.72;;
46731;SDS011;32477;51.474;5.696;2022-10-31T06:32:17;144.85;;;37.15;;
46731;SDS011;32477;51.474;5.696;2022-10-31T06:34:43;114.72;;;36.20;;
46731;SDS011;32477;51.474;5.696;2022-10-31T06:37:10;129.73;;;37.78;;
46731;SDS011;32477;51.474;5.696;2022-10-31T06:39:36;137.80;;;39.15;;
46731;SDS011;32477;51.474;5.696;2022-10-31T06:42:02;137.38;;;37.88;;
46731;SDS011;32477;51.474;5.696;2022-10-31T06:44:28;133.00;;;38.28;;
46731;SDS011;32477;51.474;5.696;2022-10-31T06:46:54;146.70;;;40.00;;
46731;SDS011;32477;51.474;5.696;2022-10-31T06:49:20;135.98;;;39.17;;
46731;SDS011;32477;51.474;5.696;2022-10-31T06:51:49;156.57;;;40.53;;
46731;SDS011;32477;51.474;5.696;2022-10-31T06:54:15;122.45;;;37.22;;
46731;SDS011;32477;51.474;5.696;2022-10-31T06:56:41;123.05;;;36.70;;
46731;SDS011;32477;51.474;5.696;2022-10-31T06:59:07;146.00;;;38.65;;
46731;SDS011;32477;51.474;5.696;2022-10-31T07:01:32;130.30;;;37.78;;
46731;SDS011;32477;51.474;5.696;2022-10-31T07:03:58;136.85;;;40.20;;
46731;SDS011;32477;51.474;5.696;2022-10-31T07:06:24;132.20;;;39.35;;
46731;SDS011;32477;51.474;5.696;2022-10-31T07:08:50;149.52;;;39.20;;
46731;SDS011;32477;51.474;5.696;2022-10-31T07:11:15;144.55;;;41.20;;
46731;SDS011;32477;51.474;5.696;2022-10-31T07:13:41;141.32;;;38.78;;
46731;SDS011;32477;51.474;5.696;2022-10-31T07:16:07;146.63;;;38.22;;
46731;SDS011;32477;51.474;5.696;2022-10-31T07:18:35;133.35;;;38.47;;
46731;SDS011;32477;51.474;5.696;2022-10-31T07:21:01;131.30;;;38.63;;
46731;SDS011;32477;51.474;5.696;2022-10-31T07:23:27;139.93;;;38.70;;
46731;SDS011;32477;51.474;5.696;2022-10-31T07:25:56;133.65;;;39.53;;
46731;SDS011;32477;51.474;5.696;2022-10-31T07:28:23;142.13;;;40.63;;
46731;SDS011;32477;51.474;5.696;2022-10-31T07:30:50;142.90;;;40.30;;
46731;SDS011;32477;51.474;5.696;2022-10-31T07:33:16;137.05;;;40.65;;
46731;SDS011;32477;51.474;5.696;2022-10-31T07:35:42;116.80;;;38.38;;
46731;SDS011;32477;51.474;5.696;2022-10-31T07:38:08;127.63;;;37.65;;
46731;SDS011;32477;51.474;5.696;2022-10-31T07:40:35;114.68;;;38.22;;
46731;SDS011;32477;51.474;5.696;2022-10-31T07:43:01;113.43;;;38.50;;
46731;SDS011;32477;51.474;5.696;2022-10-31T07:45:27;122.10;;;35.35;;
46731;SDS011;32477;51.474;5.696;2022-10-31T07:47:53;139.55;;;41.40;;
46731;SDS011;32477;51.474;5.696;2022-10-31T07:50:20;123.05;;;37.55;;
46731;SDS011;32477;51.474;5.696;2022-10-31T07:52:47;105.40;;;37.78;;
46731;SDS011;32477;51.474;5.696;2022-10-31T07:55:14;98.25;;;36.42;;
46731;SDS011;32477;51.474;5.696;2022-10-31T07:57:40;114.68;;;39.45;;
46731;SDS011;32477;51.474;5.696;2022-10-31T08:00:06;96.78;;;37.50;;
46731;SDS011;32477;51.474;5.696;2022-10-31T08:02:34;110.28;;;38.30;;
46731;SDS011;32477;51.474;5.696;2022-10-31T08:05:00;107.47;;;39.72;;
46731;SDS011;32477;51.474;5.696;2022-10-31T08:07:27;106.50;;;37.83;;
46731;SDS011;32477;51.474;5.696;2022-10-31T08:09:54;102.40;;;38.00;;
46731;SDS011;32477;51.474;5.696;2022-10-31T08:12:20;109.18;;;37.30;;
46731;SDS011;32477;51.474;5.696;2022-10-31T08:14:45;107.82;;;37.08;;
46731;SDS011;32477;51.474;5.696;2022-10-31T08:17:11;91.18;;;36.10;;
46731;SDS011;32477;51.474;5.696;2022-10-31T08:19:37;94.20;;;36.88;;
46731;SDS011;32477;51.474;5.696;2022-10-31T08:22:02;82.95;;;36.20;;
46731;SDS011;32477;51.474;5.696;2022-10-31T08:24:28;76.13;;;33.22;;
46731;SDS011;32477;51.474;5.696;2022-10-31T08:26:54;85.50;;;33.75;;
46731;SDS011;32477;51.474;5.696;2022-10-31T08:29:19;81.75;;;32.47;;
46731;SDS011;32477;51.474;5.696;2022-10-31T08:31:45;80.32;;;30.27;;
46731;SDS011;32477;51.474;5.696;2022-10-31T08:34:10;67.63;;;30.17;;
46731;SDS011;32477;51.474;5.696;2022-10-31T08:36:36;65.60;;;29.27;;
46731;SDS011;32477;51.474;5.696;2022-10-31T08:39:02;68.88;;;28.58;;
46731;SDS011;32477;51.474;5.696;2022-10-31T08:41:28;56.85;;;27.98;;
46731;SDS011;32477;51.474;5.696;2022-10-31T08:43:54;62.35;;;28.30;;
46731;SDS011;32477;51.474;5.696;2022-10-31T08:46:19;60.45;;;27.05;;
46731;SDS011;32477;51.474;5.696;2022-10-31T08:48:47;60.85;;;26.88;;
46731;SDS011;32477;51.474;5.696;2022-10-31T08:51:13;51.22;;;25.48;;
46731;SDS011;32477;51.474;5.696;2022-10-31T08:53:39;52.42;;;24.95;;
46731;SDS011;32477;51.474;5.696;2022-10-31T08:56:05;54.05;;;24.42;;
46731;SDS011;32477;51.474;5.696;2022-10-31T08:58:31;59.55;;;27.17;;
46731;SDS011;32477;51.474;5.696;2022-10-31T09:00:58;57.38;;;26.25;;
46731;SDS011;32477;51.474;5.696;2022-10-31T09:03:26;50.58;;;27.45;;
46731;SDS011;32477;51.474;5.696;2022-10-31T09:05:56;60.25;;;27.63;;
46731;SDS011;32477;51.474;5.696;2022-10-31T09:08:23;55.88;;;25.40;;
46731;SDS011;32477;51.474;5.696;2022-10-31T09:10:49;49.55;;;25.55;;
46731;SDS011;32477;51.474;5.696;2022-10-31T09:13:16;46.03;;;23.95;;
46731;SDS011;32477;51.474;5.696;2022-10-31T09:15:44;50.83;;;23.38;;
46731;SDS011;32477;51.474;5.696;2022-10-31T09:18:10;41.28;;;20.73;;
46731;SDS011;32477;51.474;5.696;2022-10-31T09:20:38;41.17;;;21.17;;
46731;SDS011;32477;51.474;5.696;2022-10-31T09:23:06;59.63;;;21.13;;
46731;SDS011;32477;51.474;5.696;2022-10-31T09:25:34;39.58;;;19.70;;
46731;SDS011;32477;51.474;5.696;2022-10-31T09:28:01;48.08;;;20.08;;
46731;SDS011;32477;51.474;5.696;2022-10-31T09:30:28;42.95;;;19.92;;
46731;SDS011;32477;51.474;5.696;2022-10-31T09:32:59;38.55;;;20.27;;
46731;SDS011;32477;51.474;5.696;2022-10-31T09:35:27;44.75;;;19.25;;
46731;SDS011;32477;51.474;5.696;2022-10-31T09:38:03;44.92;;;20.00;;
46731;SDS011;32477;51.474;5.696;2022-10-31T09:40:40;47.58;;;18.83;;
46731;SDS011;32477;51.474;5.696;2022-10-31T09:51:48;39.15;;;18.23;;
46731;SDS011;32477;51.474;5.696;2022-10-31T09:54:20;35.75;;;19.25;;
46731;SDS011;32477;51.474;5.696;2022-10-31T09:56:52;36.90;;;18.77;;
46731;SDS011;32477;51.474;5.696;2022-10-31T09:59:28;39.40;;;19.83;;
46731;SDS011;32477;51.474;5.696;2022-10-31T10:02:02;35.08;;;18.15;;
46731;SDS011;32477;51.474;5.696;2022-10-31T10:21:39;37.53;;;18.30;;
46731;SDS011;32477;51.474;5.696;2022-10-31T10:24:25;42.40;;;19.20;;
46731;SDS011;32477;51.474;5.696;2022-10-31T10:31:59;38.35;;;19.98;;
46731;SDS011;32477;51.474;5.696;2022-10-31T10:34:35;55.10;;;21.65;;
46731;SDS011;32477;51.474;5.696;2022-10-31T10:37:17;42.05;;;21.00;;
46731;SDS011;32477;51.474;5.696;2022-10-31T10:42:40;38.58;;;20.65;;
46731;SDS011;32477;51.474;5.696;2022-10-31T10:45:28;34.17;;;20.73;;
46731;SDS011;32477;51.474;5.696;2022-10-31T10:48:36;44.67;;;20.10;;
46731;SDS011;32477;51.474;5.696;2022-10-31T10:51:08;42.88;;;20.70;;
46731;SDS011;32477;51.474;5.696;2022-10-31T10:56:31;42.85;;;22.10;;
46731;SDS011;32477;51.474;5.696;2022-10-31T10:59:20;41.72;;;20.80;;
46731;SDS011;32477;51.474;5.696;2022-10-31T11:01:48;45.35;;;20.17;;
46731;SDS011;32477;51.474;5.696;2022-10-31T11:04:24;56.85;;;22.35;;
46731;SDS011;32477;51.474;5.696;2022-10-31T11:07:02;46.17;;;21.58;;
46731;SDS011;32477;51.474;5.696;2022-10-31T11:09:33;40.75;;;21.85;;
46731;SDS011;32477;51.474;5.696;2022-10-31T11:12:00;47.15;;;19.95;;
46731;SDS011;32477;51.474;5.696;2022-10-31T11:14:36;41.38;;;21.27;;
46731;SDS011;32477;51.474;5.696;2022-10-31T11:17:17;50.60;;;19.20;;
46731;SDS011;32477;51.474;5.696;2022-10-31T11:19:59;39.60;;;20.63;;
46731;SDS011;32477;51.474;5.696;2022-10-31T11:22:29;41.47;;;19.80;;
46731;SDS011;32477;51.474;5.696;2022-10-31T11:24:55;39.58;;;19.98;;
46731;SDS011;32477;51.474;5.696;2022-10-31T11:27:22;44.88;;;19.75;;
46731;SDS011;32477;51.474;5.696;2022-10-31T11:29:49;47.60;;;19.88;;
46731;SDS011;32477;51.474;5.696;2022-10-31T11:32:22;36.17;;;19.77;;
46731;SDS011;32477;51.474;5.696;2022-10-31T11:34:53;40.75;;;20.55;;
46731;SDS011;32477;51.474;5.696;2022-10-31T11:37:32;43.30;;;20.50;;
46731;SDS011;32477;51.474;5.696;2022-10-31T11:40:01;41.42;;;19.58;;
46731;SDS011;32477;51.474;5.696;2022-10-31T11:42:37;40.97;;;20.27;;
46731;SDS011;32477;51.474;5.696;2022-10-31T11:45:16;39.00;;;20.15;;
46731;SDS011;32477;51.474;5.696;2022-10-31T11:47:52;45.30;;;20.38;;
46731;SDS011;32477;51.474;5.696;2022-10-31T11:50:24;34.42;;;20.13;;
46731;SDS011;32477;51.474;5.696;2022-10-31T11:53:01;37.53;;;19.05;;
46731;SDS011;32477;51.474;5.696;2022-10-31T11:55:36;44.20;;;19.10;;
46731;SDS011;32477;51.474;5.696;2022-10-31T11:58:03;40.90;;;19.38;;
46731;SDS011;32477;51.474;5.696;2022-10-31T12:00:31;42.92;;;19.05;;
46731;SDS011;32477;51.474;5.696;2022-10-31T12:05:51;40.20;;;18.40;;
46731;SDS011;32477;51.474;5.696;2022-10-31T12:08:28;39.83;;;18.48;;
46731;SDS011;32477;51.474;5.696;2022-10-31T12:14:14;42.13;;;17.48;;
46731;SDS011;32477;51.474;5.696;2022-10-31T12:26:32;39.53;;;15.30;;
46731;SDS011;32477;51.474;5.696;2022-10-31T12:29:34;35.95;;;15.40;;
46731;SDS011;32477;51.474;5.696;2022-10-31T12:32:32;30.15;;;14.30;;
46731;SDS011;32477;51.474;5.696;2022-10-31T12:38:12;44.30;;;13.20;;
46731;SDS011;32477;51.474;5.696;2022-10-31T12:43:48;24.52;;;11.70;;
46731;SDS011;32477;51.474;5.696;2022-10-31T12:49:03;23.75;;;12.45;;
46731;SDS011;32477;51.474;5.696;2022-10-31T12:59:44;29.98;;;11.77;;
46731;SDS011;32477;51.474;5.696;2022-10-31T13:04:58;34.55;;;13.40;;
46731;SDS011;32477;51.474;5.696;2022-10-31T13:07:39;34.42;;;11.82;;
46731;SDS011;32477;51.474;5.696;2022-10-31T13:12:37;25.95;;;11.85;;
46731;SDS011;32477;51.474;5.696;2022-10-31T13:15:12;23.90;;;11.60;;
46731;SDS011;32477;51.474;5.696;2022-10-31T13:17:48;25.48;;;11.82;;
46731;SDS011;32477;51.474;5.696;2022-10-31T13:20:21;25.77;;;12.43;;
46731;SDS011;32477;51.474;5.696;2022-10-31T13:22:50;27.30;;;12.20;;
46731;SDS011;32477;51.474;5.696;2022-10-31T13:25:30;29.33;;;12.40;;
46731;SDS011;32477;51.474;5.696;2022-10-31T13:28:02;37.15;;;12.10;;
46731;SDS011;32477;51.474;5.696;2022-10-31T13:30:38;30.63;;;12.48;;
46731;SDS011;32477;51.474;5.696;2022-10-31T13:33:13;27.90;;;10.80;;
46731;SDS011;32477;51.474;5.696;2022-10-31T13:35:56;33.80;;;12.95;;
46731;SDS011;32477;51.474;5.696;2022-10-31T13:41:11;26.55;;;12.80;;
46731;SDS011;32477;51.474;5.696;2022-10-31T13:46:24;29.35;;;13.30;;
46731;SDS011;32477;51.474;5.696;2022-10-31T13:48:59;31.67;;;13.05;;
46731;SDS011;32477;51.474;5.696;2022-10-31T13:51:26;27.23;;;12.90;;
46731;SDS011;32477;51.474;5.696;2022-10-31T13:56:23;26.60;;;12.50;;
46731;SDS011;32477;51.474;5.696;2022-10-31T14:01:34;25.65;;;11.52;;
46731;SDS011;32477;51.474;5.696;2022-10-31T14:04:05;24.50;;;10.70;;
46731;SDS011;32477;51.474;5.696;2022-10-31T14:09:14;27.25;;;13.10;;
46731;SDS011;32477;51.474;5.696;2022-10-31T14:11:45;31.73;;;12.43;;
46731;SDS011;32477;51.474;5.696;2022-10-31T14:14:12;38.35;;;12.43;;
46731;SDS011;32477;51.474;5.696;2022-10-31T14:16:39;25.27;;;11.38;;
46731;SDS011;32477;51.474;5.696;2022-10-31T14:19:14;28.48;;;11.15;;
46731;SDS011;32477;51.474;5.696;2022-10-31T14:21:44;23.10;;;12.17;;
46731;SDS011;32477;51.474;5.696;2022-10-31T14:26:58;25.92;;;11.52;;
46731;SDS011;32477;51.474;5.696;2022-10-31T14:29:33;41.28;;;12.55;;
46731;SDS011;32477;51.474;5.696;2022-10-31T14:46:39;25.92;;;12.05;;
46731;SDS011;32477;51.474;5.696;2022-10-31T14:51:58;30.38;;;11.20;;
46731;SDS011;32477;51.474;5.696;2022-10-31T14:54:26;22.70;;;10.35;;
46731;SDS011;32477;51.474;5.696;2022-10-31T14:56:56;24.42;;;10.30;;
46731;SDS011;32477;51.474;5.696;2022-10-31T14:59:31;22.85;;;8.85;;
46731;SDS011;32477;51.474;5.696;2022-10-31T15:02:23;29.10;;;9.93;;
46731;SDS011;32477;51.474;5.696;2022-10-31T15:04:51;25.10;;;9.30;;
46731;SDS011;32477;51.474;5.696;2022-10-31T15:07:19;27.60;;;9.75;;
46731;SDS011;32477;51.474;5.696;2022-10-31T15:09:57;35.08;;;9.95;;
46731;SDS011;32477;51.474;5.696;2022-10-31T15:12:29;33.72;;;8.82;;
46731;SDS011;32477;51.474;5.696;2022-10-31T15:14:56;19.90;;;8.68;;
46731;SDS011;32477;51.474;5.696;2022-10-31T15:17:23;28.05;;;9.13;;
46731;SDS011;32477;51.474;5.696;2022-10-31T15:19:51;26.95;;;9.57;;
46731;SDS011;32477;51.474;5.696;2022-10-31T15:22:19;29.13;;;9.32;;
46731;SDS011;32477;51.474;5.696;2022-10-31T15:24:47;24.38;;;8.30;;
46731;SDS011;32477;51.474;5.696;2022-10-31T15:27:20;19.15;;;8.45;;
46731;SDS011;32477;51.474;5.696;2022-10-31T15:29:51;22.88;;;7.43;;
46731;SDS011;32477;51.474;5.696;2022-10-31T15:32:20;18.83;;;8.55;;
46731;SDS011;32477;51.474;5.696;2022-10-31T15:34:48;27.58;;;7.80;;
46731;SDS011;32477;51.474;5.696;2022-10-31T15:37:15;20.83;;;7.43;;
46731;SDS011;32477;51.474;5.696;2022-10-31T15:39:46;22.83;;;7.93;;
46731;SDS011;32477;51.474;5.696;2022-10-31T15:42:14;25.25;;;8.35;;
46731;SDS011;32477;51.474;5.696;2022-10-31T15:45:02;20.60;;;7.88;;
46731;SDS011;32477;51.474;5.696;2022-10-31T15:47:35;24.38;;;7.65;;
46731;SDS011;32477;51.474;5.696;2022-10-31T15:50:02;21.17;;;7.63;;
46731;SDS011;32477;51.474;5.696;2022-10-31T15:52:44;30.33;;;7.50;;
46731;SDS011;32477;51.474;5.696;2022-10-31T15:55:15;26.73;;;6.80;;
46731;SDS011;32477;51.474;5.696;2022-10-31T15:57:48;23.65;;;6.63;;
46731;SDS011;32477;51.474;5.696;2022-10-31T16:00:21;26.45;;;6.82;;
46731;SDS011;32477;51.474;5.696;2022-10-31T16:05:44;16.58;;;6.13;;
46731;SDS011;32477;51.474;5.696;2022-10-31T16:10:56;25.60;;;6.20;;
46731;SDS011;32477;51.474;5.696;2022-10-31T16:13:31;20.00;;;6.43;;
46731;SDS011;32477;51.474;5.696;2022-10-31T16:16:00;20.95;;;6.03;;
46731;SDS011;32477;51.474;5.696;2022-10-31T16:18:28;15.63;;;5.90;;
46731;SDS011;32477;51.474;5.696;2022-10-31T16:21:00;19.10;;;5.72;;
46731;SDS011;32477;51.474;5.696;2022-10-31T16:23:26;18.02;;;6.22;;
46731;SDS011;32477;51.474;5.696;2022-10-31T16:25:52;23.67;;;6.18;;
46731;SDS011;32477;51.474;5.696;2022-10-31T16:28:20;19.15;;;6.15;;
46731;SDS011;32477;51.474;5.696;2022-10-31T16:30:48;15.95;;;6.40;;
46731;SDS011;32477;51.474;5.696;2022-10-31T16:39:04;14.20;;;5.70;;
46731;SDS011;32477;51.474;5.696;2022-10-31T16:41:31;14.10;;;5.47;;
46731;SDS011;32477;51.474;5.696;2022-10-31T16:44:06;22.15;;;6.70;;
46731;SDS011;32477;51.474;5.696;2022-10-31T16:46:49;18.55;;;6.50;;
46731;SDS011;32477;51.474;5.696;2022-10-31T16:49:38;19.05;;;6.25;;
46731;SDS011;32477;51.474;5.696;2022-10-31T16:52:03;20.77;;;7.30;;